Time;durP1;ratioP1;P1;durP2;ratioP2;P2;SDS_P1;SDS_P2;PMS_P1;PMS_P2;Temp;Humidity;BMP_temperature;BMP_pressure;BME280_temperature;BME280_humidity;BME280_pressure;Samples;Min_cycle;Max_cycle;Signal;HPM_P1;HPM_P2
2022/12/09 00:01:21;;;;;;;31.58;17.15;;;;;;;-4.26;78.03;100012.16;4940558;28;20045;-72
2022/12/09 00:03:47;;;;;;;31.10;14.38;;;;;;;-4.30;78.15;100007.00;4981273;28;20413;-72
2022/12/09 00:06:15;;;;;;;27.85;14.80;;;;;;;-4.15;78.25;100014.69;4974379;28;20053;-72
2022/12/09 00:08:40;;;;;;;26.70;14.52;;;;;;;-4.21;78.14;100012.13;4975478;28;20042;-70
2022/12/09 00:11:06;;;;;;;28.83;14.18;;;;;;;-4.18;78.37;100014.72;4976848;28;20132;-68
2022/12/09 00:13:31;;;;;;;30.63;15.70;;;;;;;-4.24;78.38;100020.81;4976723;28;20041;-68
2022/12/09 00:15:55;;;;;;;39.47;17.20;;;;;;;-4.18;78.08;100020.81;4994678;28;20053;-68
2022/12/09 00:18:20;;;;;;;38.17;16.52;;;;;;;-4.22;78.23;100013.00;4977175;28;20041;-67
2022/12/09 00:20:45;;;;;;;31.35;14.40;;;;;;;-4.17;78.08;100027.72;4989655;28;20046;-68
2022/12/09 00:23:09;;;;;;;39.97;15.60;;;;;;;-4.21;78.46;100022.56;4994113;28;20071;-68
2022/12/09 00:25:34;;;;;;;32.47;14.98;;;;;;;-4.06;77.68;100028.50;4978771;28;20446;-67
2022/12/09 00:27:59;;;;;;;28.20;14.45;;;;;;;-4.10;77.51;100024.22;4977294;28;20495;-67
2022/12/09 00:30:23;;;;;;;27.25;13.70;;;;;;;-4.09;77.52;100031.16;4960306;28;20058;-68
2022/12/09 00:32:48;;;;;;;26.55;13.95;;;;;;;-4.12;77.99;100020.75;4989923;28;20052;-65
2022/12/09 00:35:13;;;;;;;26.83;12.93;;;;;;;-3.98;77.95;100033.69;4974881;28;20127;-67
2022/12/09 00:37:38;;;;;;;21.38;9.43;;;;;;;-3.84;77.48;100031.00;4964946;28;20030;-66
2022/12/09 00:40:02;;;;;;;25.35;12.10;;;;;;;-3.96;77.03;100018.91;4982806;28;20044;-68
2022/12/09 00:42:28;;;;;;;16.67;7.43;;;;;;;-3.90;76.75;100031.88;4943334;28;20515;-69
2022/12/09 00:44:52;;;;;;;24.40;12.38;;;;;;;-3.99;77.15;100020.66;4962855;28;20488;-66
2022/12/09 00:47:17;;;;;;;18.85;10.60;;;;;;;-3.92;77.08;100031.03;4960362;28;20047;-66
2022/12/09 00:49:42;;;;;;;27.02;15.00;;;;;;;-3.93;76.72;100023.22;4976828;28;20104;-67
2022/12/09 00:52:06;;;;;;;36.88;18.02;;;;;;;-3.93;76.43;100020.63;4994722;28;20044;-73
2022/12/09 00:54:31;;;;;;;27.30;15.57;;;;;;;-3.96;76.43;100026.72;4976956;28;20056;-72
2022/12/09 00:56:56;;;;;;;28.30;13.43;;;;;;;-3.93;76.35;100025.81;4976788;28;20096;-71
2022/12/09 00:59:21;;;;;;;29.50;13.82;;;;;;;-4.10;76.83;100029.41;4973944;28;20041;-72
2022/12/09 01:01:45;;;;;;;26.98;12.25;;;;;;;-4.06;77.05;100020.69;4957688;28;20141;-68
2022/12/09 01:04:10;;;;;;;28.15;15.32;;;;;;;-4.09;77.47;100027.69;4990810;28;20562;-70
2022/12/09 01:06:34;;;;;;;22.55;11.02;;;;;;;-3.90;77.35;100031.88;4998736;28;20133;-70
2022/12/09 01:09:00;;;;;;;16.75;8.30;;;;;;;-3.79;76.33;100040.47;4976491;28;20052;-76
2022/12/09 01:11:28;;;;;;;20.95;11.77;;;;;;;-3.89;76.30;100037.97;4963668;28;20064;-74
2022/12/09 01:13:53;;;;;;;23.98;11.63;;;;;;;-3.91;76.56;100039.69;4988769;28;20041;-75
2022/12/09 01:16:21;;;;;;;23.58;12.07;;;;;;;-3.92;76.73;100043.19;4982845;28;20053;-75
2022/12/09 01:18:46;;;;;;;25.42;10.70;;;;;;;-3.83;76.37;100033.56;4983034;28;20053;-73
2022/12/09 01:21:12;;;;;;;18.95;9.55;;;;;;;-3.69;75.94;100036.06;4951931;28;20049;-75
2022/12/09 01:23:38;;;;;;;16.13;7.57;;;;;;;-3.71;76.03;100022.19;4983035;28;20077;-75
2022/12/09 01:26:06;;;;;;;25.13;10.77;;;;;;;-3.88;75.75;100026.66;4966878;28;20119;-77
2022/12/09 01:28:37;;;;;;;29.77;14.52;;;;;;;-4.02;76.41;100021.56;4983226;28;20492;-77
2022/12/09 01:31:16;;;;;;;18.35;11.13;;;;;;;-3.79;76.04;100024.84;4956493;28;20046;-75
2022/12/09 01:33:41;;;;;;;23.58;10.95;;;;;;;-3.83;76.13;100030.94;4997294;28;20041;-68
2022/12/09 01:36:10;;;;;;;28.85;11.68;;;;;;;-3.95;76.43;100019.78;4999213;28;20132;-69
2022/12/09 01:38:35;;;;;;;22.52;10.32;;;;;;;-3.83;76.20;100011.84;5000382;28;20048;-70
2022/12/09 01:40:59;;;;;;;26.08;12.05;;;;;;;-4.05;76.29;100018.97;5000313;28;20041;-67
2022/12/09 01:43:24;;;;;;;20.23;9.05;;;;;;;-3.91;76.80;100009.31;5002606;28;20048;-69
2022/12/09 01:45:49;;;;;;;10.15;6.10;;;;;;;-3.79;75.76;100018.78;4987793;28;20033;-68
2022/12/09 01:48:17;;;;;;;12.43;7.40;;;;;;;-3.87;75.96;100012.78;4948487;28;20116;-74
2022/12/09 01:51:06;;;;;;;19.00;9.02;;;;;;;-3.96;76.11;100012.84;5000353;28;20042;-66
2022/12/09 01:53:37;;;;;;;21.25;9.73;;;;;;;-3.93;75.53;100021.47;4983616;28;20041;-73
2022/12/09 01:56:09;;;;;;;24.35;13.00;;;;;;;-4.16;76.73;100012.97;4964784;28;20044;-72
2022/12/09 01:58:34;;;;;;;20.83;11.73;;;;;;;-4.22;77.08;100007.81;4999148;28;20615;-71
2022/12/09 02:00:59;;;;;;;19.20;9.35;;;;;;;-4.18;77.66;100010.41;4999524;28;20045;-73
2022/12/09 02:03:23;;;;;;;14.43;7.80;;;;;;;-3.96;76.80;100018.06;4984314;28;20053;-74
2022/12/09 02:05:48;;;;;;;22.58;9.30;;;;;;;-4.01;76.79;100007.66;5000552;28;20058;-72
2022/12/09 02:08:15;;;;;;;17.77;8.52;;;;;;;-3.94;76.67;100001.53;4995166;28;20121;-72
2022/12/09 02:10:51;;;;;;;23.80;11.05;;;;;;;-4.05;76.65;100006.81;4988820;28;20041;-71
2022/12/09 02:13:46;;;;;;;18.63;9.77;;;;;;;-4.04;76.99;100007.66;4964663;28;20052;-71
2022/12/09 02:16:17;;;;;;;19.67;11.73;;;;;;;-4.10;77.34;100003.38;4975931;28;20114;-69
2022/12/09 02:18:50;;;;;;;20.13;11.88;;;;;;;-4.04;77.26;100002.47;4962583;28;20038;-73
2022/12/09 02:21:39;;;;;;;17.50;10.07;;;;;;;-3.84;76.31;99999.75;4980479;28;20045;-72
2022/12/09 02:24:20;;;;;;;18.83;10.07;;;;;;;-3.84;75.86;100003.22;4978126;28;20045;-71
2022/12/09 02:26:57;;;;;;;24.27;12.88;;;;;;;-3.98;75.96;99998.97;4977451;28;20053;-73
2022/12/09 02:29:31;;;;;;;24.58;11.95;;;;;;;-4.03;76.34;100005.06;4963416;28;20049;-70
2022/12/09 02:32:14;;;;;;;16.63;9.27;;;;;;;-4.06;76.52;100012.88;4995587;28;20057;-70
2022/12/09 02:34:54;;;;;;;19.30;9.98;;;;;;;-4.07;76.66;100007.72;4963090;28;20053;-72
2022/12/09 02:37:25;;;;;;;19.45;10.25;;;;;;;-4.09;77.21;100009.47;4979405;28;20065;-73
2022/12/09 02:40:01;;;;;;;25.53;13.47;;;;;;;-4.10;76.64;100020.75;4963438;28;20100;-74
2022/12/09 02:42:33;;;;;;;22.77;10.85;;;;;;;-4.07;76.80;100016.38;4950288;28;20060;-73
2022/12/09 02:45:02;;;;;;;21.98;12.02;;;;;;;-3.99;76.72;100012.84;4979550;28;20053;-73
2022/12/09 02:47:31;;;;;;;24.05;12.70;;;;;;;-4.08;76.74;100017.25;4978751;28;20496;-72
2022/12/09 02:50:01;;;;;;;20.35;12.15;;;;;;;-3.93;77.04;100025.81;4962259;28;20045;-73
2022/12/09 02:52:30;;;;;;;21.63;12.30;;;;;;;-3.89;76.44;100007.56;4995269;28;20045;-73
2022/12/09 02:54:57;;;;;;;16.35;8.93;;;;;;;-3.82;76.34;100009.25;4995476;28;20099;-73
2022/12/09 02:57:25;;;;;;;23.00;10.63;;;;;;;-3.82;75.98;100004.03;4978264;28;20033;-72
2022/12/09 02:59:50;;;;;;;28.70;12.25;;;;;;;-3.92;76.69;99998.91;4962271;28;20033;-72
2022/12/09 03:02:24;;;;;;;15.30;8.38;;;;;;;-3.78;76.35;99999.69;4978303;28;20052;-72
2022/12/09 03:05:07;;;;;;;;;;;;;;;-3.77;75.73;99999.66;4996580;28;20492;-72
2022/12/09 03:07:47;;;;;;;21.30;10.57;;;;;;;-3.90;76.00;99990.22;4995965;28;19983;-71
2022/12/09 03:10:24;;;;;;;24.83;11.45;;;;;;;-3.94;76.20;99992.84;4994880;28;20045;-71
2022/12/09 03:13:02;;;;;;;12.95;7.28;;;;;;;-3.74;76.59;99997.03;4996107;28;20075;-71
2022/12/09 03:15:31;;;;;;;29.50;14.05;;;;;;;-3.92;76.39;99981.53;4995813;28;20048;-72
2022/12/09 03:18:00;;;;;;;20.30;10.25;;;;;;;-3.90;76.61;99984.13;4996003;28;20056;-72
2022/12/09 03:20:29;;;;;;;26.27;12.15;;;;;;;-3.88;76.46;99982.41;4978148;28;20045;-73
2022/12/09 03:22:57;;;;;;;25.77;12.20;;;;;;;-3.87;76.57;99981.53;4978321;28;20037;-73
2022/12/09 03:25:37;;;;;;;26.85;11.95;;;;;;;-3.73;77.15;99971.88;4995142;28;20045;-73
2022/12/09 03:28:11;;;;;;;39.30;18.67;;;;;;;-3.83;76.97;99970.19;5001831;28;20069;-72
2022/12/09 03:30:40;;;;;;;33.35;15.90;;;;;;;-3.89;77.32;99978.06;4998970;28;20052;-72
2022/12/09 03:33:07;;;;;;;28.10;12.20;;;;;;;-3.64;76.86;99981.31;4996045;28;20049;-70
2022/12/09 03:35:35;;;;;;;28.02;13.40;;;;;;;-3.73;76.57;99971.88;4994654;28;20554;-72
2022/12/09 03:38:04;;;;;;;28.63;14.25;;;;;;;-3.71;76.76;99973.53;4975148;28;20056;-72
2022/12/09 03:40:30;;;;;;;31.00;14.13;;;;;;;-3.69;76.66;99978.75;4969830;28;20041;-71
2022/12/09 03:43:00;;;;;;;26.27;12.63;;;;;;;-3.70;76.62;99977.03;4995594;28;20460;-73
2022/12/09 03:45:26;;;;;;;33.08;16.08;;;;;;;-3.80;76.91;99968.44;4995507;28;20069;-72
2022/12/09 03:47:51;;;;;;;34.58;17.30;;;;;;;-3.81;77.27;99981.47;4994128;28;20522;-71
2022/12/09 03:50:16;;;;;;;30.33;14.07;;;;;;;-3.78;76.82;99973.63;4995497;28;20511;-72
2022/12/09 03:52:46;;;;;;;33.05;15.77;;;;;;;-3.80;77.54;99972.78;4995390;28;20045;-73
2022/12/09 03:55:25;;;;;;;30.38;15.63;;;;;;;-3.77;77.50;99980.56;4977844;28;20045;-72
2022/12/09 03:57:53;;;;;;;30.75;15.25;;;;;;;-3.77;77.32;99976.22;4994460;28;20476;-73
2022/12/09 04:00:18;;;;;;;27.05;13.15;;;;;;;-3.72;77.59;99968.34;4951850;28;20045;-72
2022/12/09 04:02:43;;;;;;;29.25;13.80;;;;;;;-3.71;78.12;99964.88;4973364;28;20049;-71
2022/12/09 04:05:08;;;;;;;27.10;13.10;;;;;;;-3.67;77.36;99966.59;4995829;28;20766;-72
2022/12/09 04:07:33;;;;;;;39.00;18.23;;;;;;;-3.72;77.65;99964.00;4995386;28;20133;-73
2022/12/09 04:09:58;;;;;;;32.67;15.50;;;;;;;-3.69;77.69;99968.34;4995640;28;20137;-72
2022/12/09 04:12:23;;;;;;;36.92;17.88;;;;;;;-3.71;78.02;99968.34;4993909;28;20080;-73
2022/12/09 04:14:48;;;;;;;38.83;19.20;;;;;;;-3.67;77.94;99967.44;4995341;28;20073;-72
2022/12/09 04:17:13;;;;;;;40.10;16.65;;;;;;;-3.55;77.75;99957.78;4995199;28;20037;-72
2022/12/09 04:19:37;;;;;;;21.33;10.50;;;;;;;-3.44;77.44;99963.75;4995362;28;20048;-72
2022/12/09 04:22:02;;;;;;;41.38;17.30;;;;;;;-3.40;77.20;99968.94;4995382;28;20094;-72
2022/12/09 04:24:27;;;;;;;42.45;14.90;;;;;;;-3.39;76.79;99975.03;4995483;28;20064;-73
2022/12/09 04:26:52;;;;;;;39.92;16.60;;;;;;;-3.55;76.35;99956.03;4977766;28;20049;-72
2022/12/09 04:29:17;;;;;;;39.38;14.25;;;;;;;-3.49;76.40;99963.78;4977602;28;20037;-71
2022/12/09 04:31:41;;;;;;;34.92;17.38;;;;;;;-3.59;76.74;99959.56;4965567;28;20451;-72
2022/12/09 04:34:06;;;;;;;43.80;17.00;;;;;;;-3.63;77.20;99960.47;4993030;28;20038;-72
2022/12/09 04:36:31;;;;;;;37.95;15.90;;;;;;;-3.55;77.53;99956.03;4996545;28;20411;-73
2022/12/09 04:38:55;;;;;;;36.33;15.02;;;;;;;-3.27;77.23;99958.38;4981486;28;20079;-72
2022/12/09 04:41:20;;;;;;;36.42;14.57;;;;;;;-3.37;76.18;99955.84;4998774;28;20045;-72
2022/12/09 04:43:45;;;;;;;38.60;17.20;;;;;;;-3.48;76.65;99956.84;4998611;28;20052;-73
2022/12/09 04:46:12;;;;;;;44.90;19.08;;;;;;;-3.53;76.71;99951.69;4997155;28;20506;-72
2022/12/09 04:48:37;;;;;;;39.90;17.77;;;;;;;-3.57;76.72;99962.16;4998394;28;20562;-72
2022/12/09 04:51:02;;;;;;;47.75;18.45;;;;;;;-3.46;76.81;99952.47;4980663;28;20060;-72
2022/12/09 04:53:27;;;;;;;33.65;15.30;;;;;;;-3.53;76.87;99959.50;5000297;28;20037;-72
2022/12/09 04:56:04;;;;;;;49.47;18.08;;;;;;;-3.57;77.48;99949.13;4981577;28;20989;-73
2022/12/09 04:58:30;;;;;;;37.05;16.92;;;;;;;-3.62;77.44;99951.78;4955791;28;20061;-72
2022/12/09 05:00:55;;;;;;;23.35;9.00;;;;;;;-3.41;77.67;99963.75;4975363;28;20045;-74
2022/12/09 05:03:20;;;;;;;42.72;15.95;;;;;;;-3.27;77.14;99945.34;4998795;28;20129;-74
2022/12/09 05:05:45;;;;;;;39.08;17.17;;;;;;;-3.31;76.12;99942.78;4998621;28;20156;-72
2022/12/09 05:08:09;;;;;;;40.33;17.50;;;;;;;-3.47;76.88;99943.78;5001249;28;20093;-72
2022/12/09 05:10:34;;;;;;;34.95;16.67;;;;;;;-3.53;77.10;99950.81;4998070;28;20041;-71
2022/12/09 05:12:59;;;;;;;38.92;16.45;;;;;;;-3.57;76.95;99944.78;4981729;28;20519;-72
2022/12/09 05:15:24;;;;;;;44.08;18.45;;;;;;;-3.54;77.15;99949.09;4981039;28;20495;-73
2022/12/09 05:17:48;;;;;;;43.13;18.25;;;;;;;-3.59;77.16;99949.13;4998879;28;20029;-72
2022/12/09 05:20:13;;;;;;;28.88;13.05;;;;;;;-3.44;77.15;99956.81;5015008;28;20057;-73
2022/12/09 05:22:37;;;;;;;40.67;16.15;;;;;;;-3.48;77.03;99941.19;5001958;28;20495;-73
2022/12/09 05:25:02;;;;;;;38.10;15.90;;;;;;;-3.45;77.33;99951.59;4983888;28;20042;-74
2022/12/09 05:27:27;;;;;;;37.25;16.30;;;;;;;-3.50;78.00;99940.38;5001723;28;20036;-71
2022/12/09 05:29:52;;;;;;;38.67;17.85;;;;;;;-3.48;77.67;99944.69;5002753;28;20041;-72
2022/12/09 05:32:17;;;;;;;37.97;15.80;;;;;;;-3.47;77.20;99945.53;5008522;28;20037;-73
2022/12/09 05:34:41;;;;;;;30.58;14.80;;;;;;;-3.48;78.13;99944.69;4993739;28;20411;-74
2022/12/09 05:37:06;;;;;;;40.90;13.77;;;;;;;-3.37;78.25;99942.81;4978468;28;20037;-76
2022/12/09 05:39:30;;;;;;;35.38;16.33;;;;;;;-3.32;77.65;99938.44;5011556;28;20097;-72
2022/12/09 05:41:55;;;;;;;38.15;16.90;;;;;;;-3.42;77.24;99926.38;4994835;28;20056;-75
2022/12/09 05:44:20;;;;;;;30.80;13.30;;;;;;;-3.38;77.42;99927.19;4995910;28;20842;-76
2022/12/09 05:46:44;;;;;;;34.05;16.90;;;;;;;-3.44;78.06;99929.88;5010566;28;20042;-72
2022/12/09 05:49:09;;;;;;;35.33;17.08;;;;;;;-3.43;77.62;99924.66;4994652;28;20068;-71
2022/12/09 05:51:33;;;;;;;31.33;15.18;;;;;;;-3.39;78.20;99930.72;5015242;28;20037;-71
2022/12/09 05:54:04;;;;;;;34.72;16.33;;;;;;;-3.20;78.24;99927.00;5014879;28;20379;-73
2022/12/09 05:56:29;;;;;;;34.67;15.63;;;;;;;-3.19;77.84;99927.88;5013206;28;20130;-74
2022/12/09 05:58:54;;;;;;;38.50;17.38;;;;;;;-3.22;77.88;99931.38;4975909;28;20044;-74
2022/12/09 06:01:20;;;;;;;38.53;16.60;;;;;;;-3.24;77.69;99933.13;5000459;28;20049;-72
2022/12/09 06:03:46;;;;;;;34.15;17.05;;;;;;;-3.23;77.77;99927.03;4998297;28;20049;-73
2022/12/09 06:06:13;;;;;;;38.97;16.95;;;;;;;-3.13;77.73;99930.41;4981186;28;20073;-73
2022/12/09 06:08:38;;;;;;;41.80;18.25;;;;;;;-3.08;77.54;99937.28;4963895;28;20044;-73
2022/12/09 06:11:04;;;;;;;37.20;17.60;;;;;;;-2.98;77.11;99925.00;4960143;28;20045;-71
2022/12/09 06:13:28;;;;;;;42.72;18.42;;;;;;;-2.96;76.11;99918.03;4983785;28;20443;-71
2022/12/09 06:15:53;;;;;;;26.98;10.38;;;;;;;-3.04;76.08;99907.66;4980435;28;20431;-72
2022/12/09 06:18:18;;;;;;;29.52;14.18;;;;;;;-3.09;76.14;99919.91;4998889;28;20103;-72
2022/12/09 06:20:42;;;;;;;28.90;14.77;;;;;;;-3.17;76.86;99913.94;4999015;28;20404;-73
2022/12/09 06:23:07;;;;;;;28.10;14.20;;;;;;;-3.18;76.96;99909.59;4979706;28;20049;-72
2022/12/09 06:25:31;;;;;;;34.55;16.95;;;;;;;-3.25;77.12;99917.50;4997493;28;20743;-74
2022/12/09 06:27:56;;;;;;;31.63;14.70;;;;;;;-3.20;76.94;99908.75;4997758;28;20060;-74
2022/12/09 06:30:20;;;;;;;35.83;16.77;;;;;;;-3.26;77.10;99905.34;4997390;28;20049;-73
2022/12/09 06:32:45;;;;;;;35.83;16.20;;;;;;;-3.20;77.36;99911.38;4972935;28;20456;-74
2022/12/09 06:35:10;;;;;;;38.55;18.33;;;;;;;-3.18;77.18;99904.41;4990438;28;20056;-74
2022/12/09 06:37:35;;;;;;;38.40;18.88;;;;;;;-3.18;77.38;99904.41;4980010;28;20029;-74
2022/12/09 06:39:59;;;;;;;25.85;12.65;;;;;;;-3.09;77.41;99906.03;4980018;28;20041;-74
2022/12/09 06:42:24;;;;;;;37.55;18.33;;;;;;;-3.10;77.38;99905.16;4998127;28;20402;-72
2022/12/09 06:44:48;;;;;;;34.78;17.67;;;;;;;-3.09;77.20;99903.41;4971983;28;20101;-73
2022/12/09 06:47:13;;;;;;;34.97;16.85;;;;;;;-3.19;77.13;99907.00;4991103;28;20045;-73
2022/12/09 06:49:37;;;;;;;36.33;17.00;;;;;;;-3.12;77.59;99899.09;4965773;28;20853;-74
2022/12/09 06:52:02;;;;;;;31.17;15.95;;;;;;;-3.14;77.52;99902.59;4951756;28;20047;-74
2022/12/09 06:54:27;;;;;;;22.92;11.73;;;;;;;-3.01;77.60;99905.03;4977123;28;20041;-74
2022/12/09 06:56:51;;;;;;;34.78;17.30;;;;;;;-3.04;77.59;99891.16;4976397;28;20030;-74
2022/12/09 06:59:17;;;;;;;36.95;18.20;;;;;;;-2.99;77.26;99902.41;4974048;28;20049;-74
2022/12/09 07:01:41;;;;;;;34.58;18.55;;;;;;;-2.91;77.21;99895.34;4996580;28;20045;-72
2022/12/09 07:04:06;;;;;;;35.72;17.00;;;;;;;-2.94;76.90;99891.06;4996838;28;20049;-74
2022/12/09 07:06:40;;;;;;;40.75;19.85;;;;;;;-3.05;76.86;99899.91;4996436;28;20522;-74
2022/12/09 07:09:06;;;;;;;;;;;;;;;-2.86;76.66;99893.56;4997496;28;20104;-75
2022/12/09 07:11:31;;;;;;;37.38;18.05;;;;;;;-3.03;77.03;99906.78;4999172;28;19939;-73
2022/12/09 07:13:56;;;;;;;35.75;19.38;;;;;;;-3.09;76.97;99899.06;5007051;28;20053;-75
2022/12/09 07:16:20;;;;;;;31.23;16.48;;;;;;;-3.06;77.35;99904.25;4999540;28;20056;-74
2022/12/09 07:18:45;;;;;;;36.72;16.83;;;;;;;-3.00;77.61;99908.50;4975458;28;20053;-73
2022/12/09 07:21:14;;;;;;;28.13;15.63;;;;;;;-2.92;77.66;99911.88;4986162;28;20045;-75
2022/12/09 07:23:39;;;;;;;32.92;15.43;;;;;;;-2.82;77.88;99897.81;4994202;28;20530;-65
2022/12/09 07:26:06;;;;;;;31.42;16.45;;;;;;;-2.67;77.52;99904.59;4995158;28;20500;-66
2022/12/09 07:28:32;;;;;;;36.13;16.45;;;;;;;-2.71;77.32;99906.38;4977329;28;20064;-67
2022/12/09 07:30:57;;;;;;;35.13;17.88;;;;;;;-2.69;76.88;99899.38;4981998;28;20056;-66
2022/12/09 07:33:22;;;;;;;29.88;16.83;;;;;;;-2.78;76.72;99920.38;4979559;28;20049;-74
2022/12/09 07:35:46;;;;;;;35.00;18.40;;;;;;;-2.69;76.99;99896.78;4984220;28;20021;-73
2022/12/09 07:38:11;;;;;;;34.00;17.30;;;;;;;-2.60;76.77;99891.44;4998230;28;20144;-73
2022/12/09 07:40:37;;;;;;;22.05;12.57;;;;;;;-2.64;76.42;99897.59;4953084;28;20057;-74
2022/12/09 07:43:02;;;;;;;28.15;17.40;;;;;;;-2.72;76.33;99899.44;4998786;28;20048;-74
2022/12/09 07:45:28;;;;;;;40.35;19.85;;;;;;;-2.79;76.51;99889.97;4994615;28;20038;-72
2022/12/09 07:47:53;;;;;;;26.23;15.48;;;;;;;-2.77;76.83;99889.94;5014775;28;20045;-73
2022/12/09 07:50:17;;;;;;;39.42;19.23;;;;;;;-2.77;76.70;99896.03;4999609;28;20069;-73
2022/12/09 07:52:42;;;;;;;33.40;17.70;;;;;;;-2.71;76.85;99888.09;5017001;28;20063;-74
2022/12/09 07:55:07;;;;;;;32.50;17.10;;;;;;;-2.67;76.55;99887.19;5017152;28;20052;-75
2022/12/09 07:57:33;;;;;;;36.58;19.33;;;;;;;-2.70;76.32;99882.00;5017937;28;20048;-73
2022/12/09 07:59:58;;;;;;;38.05;18.45;;;;;;;-2.75;76.71;99882.97;4997121;28;20059;-73
2022/12/09 08:02:22;;;;;;;36.58;16.73;;;;;;;-2.74;76.92;99872.50;5015747;28;20021;-72
2022/12/09 08:04:47;;;;;;;39.60;18.75;;;;;;;-2.67;76.53;99870.66;5012084;28;20058;-72
2022/12/09 08:07:12;;;;;;;29.20;16.38;;;;;;;-2.66;76.46;99878.47;5016324;28;20041;-72
2022/12/09 08:09:36;;;;;;;39.47;17.98;;;;;;;-2.54;76.14;99866.13;4986157;28;20092;-72
2022/12/09 08:12:01;;;;;;;31.60;16.65;;;;;;;-2.53;76.20;99867.84;5019143;28;20048;-74
2022/12/09 08:14:25;;;;;;;33.80;14.85;;;;;;;-2.51;75.53;99858.25;4981293;28;20052;-73
2022/12/09 08:16:50;;;;;;;39.47;19.13;;;;;;;-2.63;75.80;99857.56;4989205;28;20096;-73
2022/12/09 08:19:14;;;;;;;32.60;15.35;;;;;;;-2.44;75.47;99868.56;4990976;28;20064;-72
2022/12/09 08:21:40;;;;;;;23.80;11.30;;;;;;;-2.41;74.36;99859.84;5008865;28;20045;-72
2022/12/09 08:24:06;;;;;;;23.75;11.50;;;;;;;-2.48;74.08;99851.22;5008157;28;20049;-74
2022/12/09 08:26:31;;;;;;;32.10;16.40;;;;;;;-2.59;73.83;99835.72;5006193;28;20042;-73
2022/12/09 08:28:55;;;;;;;35.75;17.33;;;;;;;-2.78;74.07;99831.69;5008220;28;20049;-71
2022/12/09 08:31:23;;;;;;;31.75;16.25;;;;;;;-2.78;74.52;99833.44;5008763;28;20041;-73
2022/12/09 08:33:49;;;;;;;34.95;16.50;;;;;;;-2.82;74.96;99822.16;5007190;28;20041;-73
2022/12/09 08:36:16;;;;;;;19.77;9.80;;;;;;;-2.80;75.23;99816.94;5004366;28;20080;-73
2022/12/09 08:38:42;;;;;;;29.45;12.48;;;;;;;-2.80;74.58;99823.00;4987307;28;20048;-73
2022/12/09 08:41:16;;;;;;;30.48;16.70;;;;;;;-2.92;74.68;99803.19;5003655;28;20419;-74
2022/12/09 08:43:42;;;;;;;36.47;17.75;;;;;;;-2.81;74.95;99815.19;5003648;28;20049;-72
2022/12/09 08:46:08;;;;;;;34.55;16.17;;;;;;;-2.89;75.20;99815.31;5002318;28;20084;-73
2022/12/09 08:48:36;;;;;;;30.27;16.15;;;;;;;-2.97;75.72;99804.16;5005940;28;20037;-74
2022/12/09 08:51:01;;;;;;;32.53;16.73;;;;;;;-2.90;75.43;99795.34;4989172;28;20033;-73
2022/12/09 08:53:26;;;;;;;28.70;15.75;;;;;;;-2.90;75.51;99797.09;5006685;28;20057;-73
2022/12/09 08:55:50;;;;;;;35.25;16.73;;;;;;;-2.86;76.20;99798.78;5010741;28;20045;-73
2022/12/09 08:58:15;;;;;;;26.80;13.98;;;;;;;-2.79;76.19;99783.00;5010594;28;20075;-74
2022/12/09 09:00:39;;;;;;;24.75;12.25;;;;;;;-2.70;75.99;99788.06;5006198;28;20040;-74
2022/12/09 09:03:04;;;;;;;13.98;7.97;;;;;;;-2.62;75.17;99786.22;5009248;28;20104;-73
2022/12/09 09:05:29;;;;;;;23.23;13.57;;;;;;;-2.59;75.27;99786.16;5005030;28;20088;-73
2022/12/09 09:07:53;;;;;;;30.48;15.93;;;;;;;-2.64;74.91;99782.75;5004177;28;20056;-73
2022/12/09 09:10:18;;;;;;;25.13;12.80;;;;;;;-2.73;75.09;99788.13;5009174;28;20097;-73
2022/12/09 09:12:42;;;;;;;33.28;16.35;;;;;;;-2.81;74.98;99784.75;5007085;28;20081;-74
2022/12/09 09:15:07;;;;;;;28.67;13.50;;;;;;;-2.80;75.56;99789.09;4991225;28;20045;-74
2022/12/09 09:17:32;;;;;;;30.02;15.43;;;;;;;-2.74;75.19;99791.63;4991813;28;20037;-72
2022/12/09 09:19:57;;;;;;;28.63;16.25;;;;;;;-2.74;75.32;99786.41;4989723;28;20044;-73
2022/12/09 09:22:21;;;;;;;12.48;7.97;;;;;;;-2.67;75.56;99777.59;4963106;28;20132;-74
2022/12/09 09:24:46;;;;;;;30.33;14.40;;;;;;;-2.65;75.36;99778.44;4975269;28;20535;-73
2022/12/09 09:27:11;;;;;;;31.52;15.57;;;;;;;-2.67;74.93;99787.16;5003305;28;20052;-72
2022/12/09 09:29:35;;;;;;;37.70;17.42;;;;;;;-2.82;74.83;99783.03;4985825;28;20447;-73
2022/12/09 09:32:00;;;;;;;28.05;15.27;;;;;;;-2.70;75.31;99763.72;4984953;28;20065;-73
2022/12/09 09:34:26;;;;;;;29.08;15.55;;;;;;;-2.79;75.04;99762.13;5000807;28;20577;-74
2022/12/09 09:36:51;;;;;;;22.80;11.98;;;;;;;-2.69;74.85;99760.22;4998550;28;20045;-72
2022/12/09 09:39:17;;;;;;;31.40;15.60;;;;;;;-2.80;75.43;99749.97;4998329;28;20040;-73
2022/12/09 09:41:44;;;;;;;29.67;14.38;;;;;;;-2.67;75.01;99754.09;4980776;28;20100;-73
2022/12/09 09:44:34;;;;;;;30.25;15.07;;;;;;;-2.72;75.27;99757.69;4979482;28;20041;-72
2022/12/09 09:47:02;;;;;;;27.48;13.63;;;;;;;-2.79;75.22;99758.66;4960060;28;20052;-73
2022/12/09 09:49:36;;;;;;;28.65;15.90;;;;;;;-2.70;75.05;99748.06;4998105;28;20073;-73
2022/12/09 09:52:15;;;;;;;31.05;15.95;;;;;;;-2.71;75.42;99744.59;4977883;28;20500;-73
2022/12/09 09:54:40;;;;;;;29.15;15.07;;;;;;;-2.76;74.78;99738.59;4964227;28;20037;-72
2022/12/09 09:57:24;;;;;;;27.50;16.27;;;;;;;-2.75;75.62;99729.91;4981292;28;20132;-74
2022/12/09 10:00:24;;;;;;;23.33;11.17;;;;;;;-2.54;75.51;99730.41;4997913;28;20411;-66
2022/12/09 10:02:59;;;;;;;18.42;10.35;;;;;;;-2.48;74.98;99735.53;4936446;28;20043;-66
2022/12/09 10:05:31;;;;;;;24.13;13.23;;;;;;;-2.57;75.16;99724.34;4937192;28;20469;-65
2022/12/09 10:08:24;;;;;;;31.92;15.98;;;;;;;-2.55;74.86;99726.94;4936971;28;20177;-66
2022/12/09 10:11:16;;;;;;;31.17;15.80;;;;;;;-2.51;75.32;99727.75;4904390;28;20165;-66
2022/12/09 10:14:12;;;;;;;22.27;10.30;;;;;;;-2.32;75.00;99723.91;4937080;28;20774;-66
2022/12/09 10:17:00;;;;;;;26.52;14.82;;;;;;;-2.36;74.84;99723.09;4914622;28;20042;-65
2022/12/09 10:19:34;;;;;;;28.20;13.13;;;;;;;-2.30;74.23;99720.41;4925913;28;20058;-65
2022/12/09 10:22:07;;;;;;;;;;;;;;;-2.17;74.09;99718.44;4936358;28;20138;-65
2022/12/09 10:24:33;;;;;;;22.60;12.68;;;;;;;-2.27;73.58;99712.53;4936366;28;20045;-65
2022/12/09 10:27:06;;;;;;;23.80;13.63;;;;;;;-2.31;74.09;99702.16;4936610;28;20043;-65
2022/12/09 10:29:46;;;;;;;25.98;13.35;;;;;;;-2.31;74.13;99697.78;4927673;28;20050;-66
2022/12/09 10:32:18;;;;;;;25.73;13.32;;;;;;;-2.30;74.22;99689.06;4939649;28;20044;-63
2022/12/09 10:34:43;;;;;;;26.33;12.85;;;;;;;-2.31;74.38;99689.97;4935730;28;20053;-64
2022/12/09 10:37:34;;;;;;;25.88;14.02;;;;;;;-2.16;74.50;99691.44;4968611;28;20046;-65
2022/12/09 10:40:08;;;;;;;27.27;13.75;;;;;;;-2.04;74.98;99701.63;4976288;28;20049;-65
2022/12/09 10:45:25;;;;;;;26.67;14.02;;;;;;;-1.89;74.10;99680.41;4965676;28;20053;-65
2022/12/09 10:47:51;;;;;;;37.30;18.48;;;;;;;-1.90;73.80;99693.50;4942810;28;20084;-64
2022/12/09 10:50:30;;;;;;;28.88;14.35;;;;;;;-1.92;73.78;99693.53;4964367;28;20136;-66
2022/12/09 10:52:55;;;;;;;31.50;15.20;;;;;;;-2.11;73.77;99684.34;4964532;28;20061;-67
2022/12/09 10:55:33;;;;;;;29.73;16.10;;;;;;;-2.11;74.05;99700.00;4975852;28;20053;-66
2022/12/09 10:58:20;;;;;;;33.72;15.77;;;;;;;-1.90;73.11;99678.69;4976976;28;20060;-66
2022/12/09 11:01:06;;;;;;;31.52;15.10;;;;;;;-2.03;72.73;99677.22;4975181;28;20069;-65
2022/12/09 11:03:53;;;;;;;26.60;15.65;;;;;;;-2.23;72.57;99672.38;4942473;28;20038;-65
2022/12/09 11:06:36;;;;;;;27.90;15.10;;;;;;;-2.19;72.85;99675.81;4961307;28;20538;-64
2022/12/09 11:09:02;;;;;;;24.63;12.38;;;;;;;-2.21;72.45;99674.97;4994906;28;20534;-66
2022/12/09 11:11:49;;;;;;;24.77;12.88;;;;;;;-2.36;72.73;99667.41;4995958;28;20184;-65
2022/12/09 11:14:34;;;;;;;29.20;15.27;;;;;;;-2.43;72.85;99671.03;4978162;28;20467;-65
2022/12/09 11:17:17;;;;;;;29.10;12.63;;;;;;;-2.27;72.69;99665.53;4961511;28;20045;-67
2022/12/09 11:19:45;;;;;;;24.00;11.55;;;;;;;-2.26;71.79;99669.00;4994436;28;20049;-65
2022/12/09 11:22:38;;;;;;;16.27;9.85;;;;;;;-2.34;71.99;99656.06;4995281;28;20496;-66
2022/12/09 11:25:15;;;;;;;27.35;12.88;;;;;;;-2.46;71.86;99666.75;4961819;28;20065;-67